sensor_id;sensor_type;location;lat;lon;timestamp;pressure;altitude;pressure_sealevel;temperature;humidity
32875;BME280;40468;42.128;24.750;2023-03-20T00:01:00;100174.03;;;8.31;59.67
32875;BME280;40468;42.128;24.750;2023-03-20T00:02:33;100170.59;;;8.30;59.52
32875;BME280;40468;42.128;24.750;2023-03-20T00:04:04;100174.91;;;8.31;59.34
32875;BME280;40468;42.128;24.750;2023-03-20T00:05:36;100174.94;;;8.30;59.54
32875;BME280;40468;42.128;24.750;2023-03-20T00:07:08;100169.72;;;8.31;59.11
32875;BME280;40468;42.128;24.750;2023-03-20T00:08:42;100167.97;;;8.32;59.17
32875;BME280;40468;42.128;24.750;2023-03-20T00:10:16;100144.03;;;8.22;58.93
32875;BME280;40468;42.128;24.750;2023-03-20T00:11:50;100155.28;;;8.23;58.76
32875;BME280;40468;42.128;24.750;2023-03-20T00:13:24;100123.81;;;8.05;59.07
32875;BME280;40468;42.128;24.750;2023-03-20T00:14:59;100159.34;;;8.31;58.86
32875;BME280;40468;42.128;24.750;2023-03-20T00:16:32;100144.84;;;8.24;58.80
32875;BME280;40468;42.128;24.750;2023-03-20T00:18:13;100028.50;;;7.54;58.55
32875;BME280;40468;42.128;24.750;2023-03-20T00:19:45;100122.69;;;8.14;58.37
32875;BME280;40468;42.128;24.750;2023-03-20T00:21:17;100147.25;;;8.30;58.25
32875;BME280;40468;42.128;24.750;2023-03-20T00:22:49;100146.47;;;8.28;58.18
32875;BME280;40468;42.128;24.750;2023-03-20T00:24:22;100148.16;;;8.29;58.33
32875;BME280;40468;42.128;24.750;2023-03-20T00:25:54;100128.47;;;8.22;58.11
32875;BME280;40468;42.128;24.750;2023-03-20T00:27:27;100145.56;;;8.29;58.29
32875;BME280;40468;42.128;24.750;2023-03-20T00:28:57;100036.88;;;7.64;57.83
32875;BME280;40468;42.128;24.750;2023-03-20T00:30:30;100149.06;;;8.28;58.07
32875;BME280;40468;42.128;24.750;2023-03-20T00:32:02;100145.66;;;8.26;58.05
32875;BME280;40468;42.128;24.750;2023-03-20T00:33:34;100143.94;;;8.25;57.96
32875;BME280;40468;42.128;24.750;2023-03-20T00:35:17;100132.97;;;8.17;58.00
32875;BME280;40468;42.128;24.750;2023-03-20T00:36:49;100139.00;;;8.17;58.17
32875;BME280;40468;42.128;24.750;2023-03-20T00:38:21;100125.47;;;8.08;58.09
32875;BME280;40468;42.128;24.750;2023-03-20T00:39:53;100121.91;;;8.10;57.94
32875;BME280;40468;42.128;24.750;2023-03-20T00:41:26;100128.63;;;8.17;58.09
32875;BME280;40468;42.128;24.750;2023-03-20T00:43:00;100137.25;;;8.18;57.75
32875;BME280;40468;42.128;24.750;2023-03-20T00:44:35;100114.31;;;8.04;58.13
32875;BME280;40468;42.128;24.750;2023-03-20T00:46:11;100131.31;;;8.14;57.85
32875;BME280;40468;42.128;24.750;2023-03-20T00:47:43;100118.56;;;8.07;57.80
32875;BME280;40468;42.128;24.750;2023-03-20T00:49:23;100041.31;;;7.59;58.03
32875;BME280;40468;42.128;24.750;2023-03-20T00:50:56;100124.47;;;8.12;58.03
32875;BME280;40468;42.128;24.750;2023-03-20T00:52:29;100116.88;;;8.06;57.96
32875;BME280;40468;42.128;24.750;2023-03-20T00:53:59;100120.28;;;8.08;58.08
32875;BME280;40468;42.128;24.750;2023-03-20T00:55:31;100123.63;;;8.11;57.97
32875;BME280;40468;42.128;24.750;2023-03-20T00:57:05;100127.06;;;8.12;58.40
32875;BME280;40468;42.128;24.750;2023-03-20T00:58:38;100124.50;;;8.10;58.62
32875;BME280;40468;42.128;24.750;2023-03-20T01:00:20;100121.97;;;8.09;58.53
32875;BME280;40468;42.128;24.750;2023-03-20T01:01:53;100101.59;;;7.95;58.75
32875;BME280;40468;42.128;24.750;2023-03-20T01:03:26;100117.06;;;7.98;58.72
32875;BME280;40468;42.128;24.750;2023-03-20T01:05:01;100119.75;;;7.96;58.74
32875;BME280;40468;42.128;24.750;2023-03-20T01:06:33;100125.69;;;7.98;58.82
32875;BME280;40468;42.128;24.750;2023-03-20T01:08:11;100118.81;;;7.99;58.61
32875;BME280;40468;42.128;24.750;2023-03-20T01:09:43;100122.31;;;7.96;58.60
32875;BME280;40468;42.128;24.750;2023-03-20T01:11:21;100111.22;;;7.91;58.79
32875;BME280;40468;42.128;24.750;2023-03-20T01:12:54;100130.78;;;8.03;58.64
32875;BME280;40468;42.128;24.750;2023-03-20T01:14:28;100128.19;;;8.03;58.77
32875;BME280;40468;42.128;24.750;2023-03-20T01:16:00;100121.25;;;8.04;58.51
32875;BME280;40468;42.128;24.750;2023-03-20T01:17:32;100120.41;;;8.03;58.56
32875;BME280;40468;42.128;24.750;2023-03-20T01:19:04;100117.81;;;8.03;58.79
32875;BME280;40468;42.128;24.750;2023-03-20T01:20:37;100100.00;;;7.91;58.54
32875;BME280;40468;42.128;24.750;2023-03-20T01:22:09;100126.50;;;8.02;58.61
32875;BME280;40468;42.128;24.750;2023-03-20T01:23:43;100106.81;;;7.95;58.81
32875;BME280;40468;42.128;24.750;2023-03-20T01:25:16;100047.41;;;7.58;58.61
32875;BME280;40468;42.128;24.750;2023-03-20T01:26:47;100114.47;;;8.00;58.86
32875;BME280;40468;42.128;24.750;2023-03-20T01:28:22;100096.53;;;7.92;58.69
32875;BME280;40468;42.128;24.750;2023-03-20T01:29:53;100104.13;;;7.98;58.79
32875;BME280;40468;42.128;24.750;2023-03-20T01:31:25;100104.97;;;7.98;58.91
32875;BME280;40468;42.128;24.750;2023-03-20T01:32:59;100105.03;;;7.97;58.87
32875;BME280;40468;42.128;24.750;2023-03-20T01:34:31;100104.34;;;7.90;58.99
32875;BME280;40468;42.128;24.750;2023-03-20T01:36:07;100097.53;;;7.86;59.11
32875;BME280;40468;42.128;24.750;2023-03-20T01:37:39;100115.56;;;7.91;59.12
32875;BME280;40468;42.128;24.750;2023-03-20T01:39:11;100088.28;;;7.78;59.24
32875;BME280;40468;42.128;24.750;2023-03-20T01:40:48;100093.28;;;7.84;59.19
32875;BME280;40468;42.128;24.750;2023-03-20T01:42:23;100103.50;;;7.90;59.10
32875;BME280;40468;42.128;24.750;2023-03-20T01:43:54;100091.78;;;7.77;59.23
32875;BME280;40468;42.128;24.750;2023-03-20T01:45:30;100094.19;;;7.83;59.13
32875;BME280;40468;42.128;24.750;2023-03-20T01:47:05;100096.78;;;7.83;59.07
32875;BME280;40468;42.128;24.750;2023-03-20T01:48:59;100106.13;;;7.88;58.94
32875;BME280;40468;42.128;24.750;2023-03-20T01:50:32;100019.66;;;7.32;59.06
32875;BME280;40468;42.128;24.750;2023-03-20T01:52:05;100085.69;;;7.78;59.03
32875;BME280;40468;42.128;24.750;2023-03-20T01:53:36;100096.75;;;7.84;59.17
32875;BME280;40468;42.128;24.750;2023-03-20T01:55:08;100090.03;;;7.77;59.24
32875;BME280;40468;42.128;24.750;2023-03-20T01:56:43;100099.38;;;7.83;59.28
32875;BME280;40468;42.128;24.750;2023-03-20T01:58:20;99936.56;;;6.77;59.05
32875;BME280;40468;42.128;24.750;2023-03-20T01:59:56;100100.38;;;7.79;59.17
32875;BME280;40468;42.128;24.750;2023-03-20T02:01:32;100103.06;;;7.75;59.34
32875;BME280;40468;42.128;24.750;2023-03-20T02:03:06;100104.91;;;7.72;59.43
32875;BME280;40468;42.128;24.750;2023-03-20T02:04:42;100089.66;;;7.60;59.57
32875;BME280;40468;42.128;24.750;2023-03-20T02:06:16;100096.31;;;7.70;59.72
32875;BME280;40468;42.128;24.750;2023-03-20T02:07:57;100076.09;;;7.51;59.54
32875;BME280;40468;42.128;24.750;2023-03-20T02:09:30;100095.72;;;7.60;59.61
32875;BME280;40468;42.128;24.750;2023-03-20T02:11:03;100063.53;;;7.38;59.59
32875;BME280;40468;42.128;24.750;2023-03-20T02:12:37;100097.59;;;7.55;59.88
32875;BME280;40468;42.128;24.750;2023-03-20T02:14:08;100111.34;;;7.57;59.96
32875;BME280;40468;42.128;24.750;2023-03-20T02:16:06;100107.09;;;7.55;59.72
32875;BME280;40468;42.128;24.750;2023-03-20T02:17:38;100095.88;;;7.54;59.88
32875;BME280;40468;42.128;24.750;2023-03-20T02:19:14;100098.53;;;7.52;59.76
32875;BME280;40468;42.128;24.750;2023-03-20T02:21:05;100099.38;;;7.53;59.67
32875;BME280;40468;42.128;24.750;2023-03-20T02:22:50;100102.19;;;7.45;59.54
32875;BME280;40468;42.128;24.750;2023-03-20T02:26:59;100083.50;;;7.34;59.65
32875;BME280;40468;42.128;24.750;2023-03-20T02:31:13;100086.09;;;7.33;59.44
32875;BME280;40468;42.128;24.750;2023-03-20T02:33:07;100082.03;;;7.24;59.93
32875;BME280;40468;42.128;24.750;2023-03-20T02:37:21;100075.31;;;7.17;59.67
32875;BME280;40468;42.128;24.750;2023-03-20T02:39:03;100091.38;;;7.29;59.73
32875;BME280;40468;42.128;24.750;2023-03-20T02:40:43;100090.53;;;7.29;59.82
32875;BME280;40468;42.128;24.750;2023-03-20T02:42:25;100083.59;;;7.29;59.67
32875;BME280;40468;42.128;24.750;2023-03-20T02:44:05;100082.94;;;7.21;59.66
32875;BME280;40468;42.128;24.750;2023-03-20T02:45:43;100082.75;;;7.29;59.80
32875;BME280;40468;42.128;24.750;2023-03-20T02:47:23;100094.03;;;7.28;59.78
32875;BME280;40468;42.128;24.750;2023-03-20T02:49:02;100053.13;;;7.06;59.92
32875;BME280;40468;42.128;24.750;2023-03-20T02:50:39;100055.69;;;7.08;59.75
32875;BME280;40468;42.128;24.750;2023-03-20T02:52:18;100085.44;;;7.24;59.79
32875;BME280;40468;42.128;24.750;2023-03-20T02:53:59;100072.66;;;7.18;59.94
32875;BME280;40468;42.128;24.750;2023-03-20T02:55:39;100088.91;;;7.25;59.78
32875;BME280;40468;42.128;24.750;2023-03-20T02:57:16;100085.50;;;7.23;59.97
32875;BME280;40468;42.128;24.750;2023-03-20T02:58:58;100087.28;;;7.21;60.00
32875;BME280;40468;42.128;24.750;2023-03-20T03:00:35;100092.59;;;7.16;60.06
32875;BME280;40468;42.128;24.750;2023-03-20T03:02:11;100059.47;;;6.96;60.02
32875;BME280;40468;42.128;24.750;2023-03-20T03:03:48;100087.59;;;7.10;60.20
32875;BME280;40468;42.128;24.750;2023-03-20T03:05:24;100088.53;;;7.06;60.31
32875;BME280;40468;42.128;24.750;2023-03-20T03:06:58;100071.47;;;6.99;60.33
32875;BME280;40468;42.128;24.750;2023-03-20T03:08:37;100078.31;;;7.01;60.12
32875;BME280;40468;42.128;24.750;2023-03-20T03:10:15;100069.03;;;6.93;60.02
32875;BME280;40468;42.128;24.750;2023-03-20T03:11:52;100082.84;;;6.93;60.20
32875;BME280;40468;42.128;24.750;2023-03-20T03:13:28;100002.16;;;6.42;60.09
32875;BME280;40468;42.128;24.750;2023-03-20T03:15:06;100078.84;;;6.80;60.29
32875;BME280;40468;42.128;24.750;2023-03-20T03:16:43;100072.88;;;6.78;60.53
32875;BME280;40468;42.128;24.750;2023-03-20T03:18:18;100079.00;;;6.74;60.35
32875;BME280;40468;42.128;24.750;2023-03-20T03:19:54;100085.09;;;6.71;60.46
32875;BME280;40468;42.128;24.750;2023-03-20T03:21:29;100061.25;;;6.60;60.47
32875;BME280;40468;42.128;24.750;2023-03-20T03:23:02;99980.69;;;6.04;60.61
32875;BME280;40468;42.128;24.750;2023-03-20T03:24:36;100071.53;;;6.63;60.51
32875;BME280;40468;42.128;24.750;2023-03-20T03:26:12;100075.03;;;6.60;60.70
32875;BME280;40468;42.128;24.750;2023-03-20T03:27:59;100076.88;;;6.55;61.01
32875;BME280;40468;42.128;24.750;2023-03-20T03:29:33;100075.28;;;6.50;61.09
32875;BME280;40468;42.128;24.750;2023-03-20T03:31:12;100072.78;;;6.47;61.17
32875;BME280;40468;42.128;24.750;2023-03-20T03:32:46;100069.34;;;6.45;61.17
32875;BME280;40468;42.128;24.750;2023-03-20T03:34:20;100082.34;;;6.43;61.39
32875;BME280;40468;42.128;24.750;2023-03-20T03:35:58;100074.59;;;6.42;61.45
32875;BME280;40468;42.128;24.750;2023-03-20T03:37:40;100043.25;;;6.18;61.19
32875;BME280;40468;42.128;24.750;2023-03-20T03:39:21;100073.91;;;6.35;61.36
32875;BME280;40468;42.128;24.750;2023-03-20T03:41:06;100079.16;;;6.32;61.42
32875;BME280;40468;42.128;24.750;2023-03-20T03:42:50;100051.16;;;6.12;61.84
32875;BME280;40468;42.128;24.750;2023-03-20T03:44:27;100081.06;;;6.24;61.85
32875;BME280;40468;42.128;24.750;2023-03-20T03:46:06;100079.38;;;6.23;62.16
32875;BME280;40468;42.128;24.750;2023-03-20T03:47:43;100075.97;;;6.21;62.04
32875;BME280;40468;42.128;24.750;2023-03-20T03:49:20;100065.75;;;6.14;62.09
32875;BME280;40468;42.128;24.750;2023-03-20T03:50:53;100066.66;;;6.13;62.14
32875;BME280;40468;42.128;24.750;2023-03-20T03:52:27;99889.06;;;5.02;62.01
32875;BME280;40468;42.128;24.750;2023-03-20T03:54:03;100041.25;;;5.93;62.20
32875;BME280;40468;42.128;24.750;2023-03-20T03:55:41;100075.31;;;6.11;62.24
32875;BME280;40468;42.128;24.750;2023-03-20T03:57:16;100071.19;;;6.04;62.29
32875;BME280;40468;42.128;24.750;2023-03-20T03:58:52;100072.94;;;6.02;62.48
32875;BME280;40468;42.128;24.750;2023-03-20T04:00:27;100085.81;;;6.05;62.53
32875;BME280;40468;42.128;24.750;2023-03-20T04:02:00;100084.97;;;6.03;62.64
32875;BME280;40468;42.128;24.750;2023-03-20T04:03:37;100070.50;;;5.96;62.65
32875;BME280;40468;42.128;24.750;2023-03-20T04:05:11;99919.25;;;5.00;62.57
32875;BME280;40468;42.128;24.750;2023-03-20T04:06:44;100080.78;;;5.97;62.77
32875;BME280;40468;42.128;24.750;2023-03-20T04:08:16;100079.09;;;5.96;62.71
32875;BME280;40468;42.128;24.750;2023-03-20T04:09:48;100082.59;;;5.95;62.77
32875;BME280;40468;42.128;24.750;2023-03-20T04:11:22;100079.22;;;5.88;62.77
32875;BME280;40468;42.128;24.750;2023-03-20T04:12:55;100082.63;;;5.90;62.78
32875;BME280;40468;42.128;24.750;2023-03-20T04:14:28;100070.75;;;5.82;62.88
32875;BME280;40468;42.128;24.750;2023-03-20T04:16:00;100080.22;;;5.83;62.67
32875;BME280;40468;42.128;24.750;2023-03-20T04:17:32;100087.97;;;5.83;62.81
32875;BME280;40468;42.128;24.750;2023-03-20T04:19:03;100082.91;;;5.78;62.66
32875;BME280;40468;42.128;24.750;2023-03-20T04:20:35;100072.81;;;5.66;62.73
32875;BME280;40468;42.128;24.750;2023-03-20T04:22:07;100065.22;;;5.58;62.73
32875;BME280;40468;42.128;24.750;2023-03-20T04:23:39;100082.25;;;5.67;62.80
32875;BME280;40468;42.128;24.750;2023-03-20T04:25:15;100083.16;;;5.66;62.94
32875;BME280;40468;42.128;24.750;2023-03-20T04:26:48;100080.66;;;5.61;62.98
32875;BME280;40468;42.128;24.750;2023-03-20T04:28:20;100087.59;;;5.59;63.11
32875;BME280;40468;42.128;24.750;2023-03-20T04:29:53;100083.34;;;5.57;63.15
32875;BME280;40468;42.128;24.750;2023-03-20T04:31:26;100077.41;;;5.53;63.26
32875;BME280;40468;42.128;24.750;2023-03-20T04:32:58;100080.84;;;5.52;63.26
32875;BME280;40468;42.128;24.750;2023-03-20T04:34:30;100086.06;;;5.49;63.48
32875;BME280;40468;42.128;24.750;2023-03-20T04:36:02;100071.47;;;5.46;63.42
32875;BME280;40468;42.128;24.750;2023-03-20T04:37:35;100067.28;;;5.42;63.48
32875;BME280;40468;42.128;24.750;2023-03-20T04:39:07;100007.78;;;5.02;63.26
32875;BME280;40468;42.128;24.750;2023-03-20T04:40:38;100086.13;;;5.46;63.31
32875;BME280;40468;42.128;24.750;2023-03-20T04:42:10;99973.03;;;4.76;63.17
32875;BME280;40468;42.128;24.750;2023-03-20T04:43:42;100085.31;;;5.44;63.37
32875;BME280;40468;42.128;24.750;2023-03-20T04:45:16;100079.28;;;5.43;63.30
32875;BME280;40468;42.128;24.750;2023-03-20T04:46:48;100081.94;;;5.40;63.48
32875;BME280;40468;42.128;24.750;2023-03-20T04:48:19;100078.56;;;5.38;63.55
32875;BME280;40468;42.128;24.750;2023-03-20T04:49:51;100087.16;;;5.39;63.59
32875;BME280;40468;42.128;24.750;2023-03-20T04:51:23;100052.28;;;5.16;63.59
32875;BME280;40468;42.128;24.750;2023-03-20T04:52:55;100074.41;;;5.30;63.75
32875;BME280;40468;42.128;24.750;2023-03-20T04:54:27;100069.25;;;5.28;63.65
32875;BME280;40468;42.128;24.750;2023-03-20T04:55:59;100001.97;;;4.91;63.65
32875;BME280;40468;42.128;24.750;2023-03-20T04:57:31;100088.00;;;5.38;63.67
32875;BME280;40468;42.128;24.750;2023-03-20T04:59:04;100091.53;;;5.34;63.89
32875;BME280;40468;42.128;24.750;2023-03-20T05:00:36;100088.97;;;5.32;63.74
32875;BME280;40468;42.128;24.750;2023-03-20T05:02:08;100096.78;;;5.29;63.80
32875;BME280;40468;42.128;24.750;2023-03-20T05:03:44;100100.22;;;5.30;63.97
32875;BME280;40468;42.128;24.750;2023-03-20T05:05:16;100093.34;;;5.30;64.00
32875;BME280;40468;42.128;24.750;2023-03-20T05:06:48;100088.25;;;5.25;64.08
32875;BME280;40468;42.128;24.750;2023-03-20T05:08:19;100100.19;;;5.33;64.06
32875;BME280;40468;42.128;24.750;2023-03-20T05:09:51;100098.41;;;5.35;64.00
32875;BME280;40468;42.128;24.750;2023-03-20T05:11:22;100087.22;;;5.36;64.02
32875;BME280;40468;42.128;24.750;2023-03-20T05:12:54;100088.88;;;5.38;64.11
32875;BME280;40468;42.128;24.750;2023-03-20T05:14:26;100088.88;;;5.38;64.10
32875;BME280;40468;42.128;24.750;2023-03-20T05:15:58;100064.22;;;5.23;64.19
32875;BME280;40468;42.128;24.750;2023-03-20T05:17:30;100094.91;;;5.39;64.24
32875;BME280;40468;42.128;24.750;2023-03-20T05:19:01;100008.94;;;4.87;64.19
32875;BME280;40468;42.128;24.750;2023-03-20T05:20:33;100015.53;;;5.02;64.22
32875;BME280;40468;42.128;24.750;2023-03-20T05:22:04;100092.25;;;5.42;64.26
32875;BME280;40468;42.128;24.750;2023-03-20T05:23:37;100102.41;;;5.50;64.30
32875;BME280;40468;42.128;24.750;2023-03-20T05:25:08;100075.84;;;5.43;64.39
32875;BME280;40468;42.128;24.750;2023-03-20T05:26:40;100095.50;;;5.52;64.47
32875;BME280;40468;42.128;24.750;2023-03-20T05:28:12;100058.81;;;5.36;64.38
32875;BME280;40468;42.128;24.750;2023-03-20T05:29:44;100074.00;;;5.50;64.46
32875;BME280;40468;42.128;24.750;2023-03-20T05:31:17;100087.66;;;5.56;64.45
32875;BME280;40468;42.128;24.750;2023-03-20T05:32:49;100097.03;;;5.60;64.44
32875;BME280;40468;42.128;24.750;2023-03-20T05:34:22;100031.53;;;5.21;64.56
32875;BME280;40468;42.128;24.750;2023-03-20T05:35:54;100075.63;;;5.55;64.67
32875;BME280;40468;42.128;24.750;2023-03-20T05:37:25;100078.19;;;5.57;64.82
32875;BME280;40468;42.128;24.750;2023-03-20T05:38:57;100087.59;;;5.59;64.66
32875;BME280;40468;42.128;24.750;2023-03-20T05:40:29;100091.69;;;5.69;64.42
32875;BME280;40468;42.128;24.750;2023-03-20T05:42:01;100072.09;;;5.59;64.49
32875;BME280;40468;42.128;24.750;2023-03-20T05:43:33;100092.34;;;5.79;64.33
32875;BME280;40468;42.128;24.750;2023-03-20T05:45:06;100071.06;;;5.68;64.41
32875;BME280;40468;42.128;24.750;2023-03-20T05:46:39;100084.66;;;5.76;64.39
32875;BME280;40468;42.128;24.750;2023-03-20T05:48:11;100094.00;;;5.83;64.10
32875;BME280;40468;42.128;24.750;2023-03-20T05:49:43;100093.94;;;5.85;64.16
32875;BME280;40468;42.128;24.750;2023-03-20T05:51:14;100090.44;;;5.89;64.16
32875;BME280;40468;42.128;24.750;2023-03-20T05:52:46;100071.00;;;5.71;64.38
32875;BME280;40468;42.128;24.750;2023-03-20T05:54:17;100081.88;;;5.85;64.12
32875;BME280;40468;42.128;24.750;2023-03-20T05:55:49;100092.91;;;5.95;64.29
32875;BME280;40468;42.128;24.750;2023-03-20T05:57:21;100093.69;;;5.99;64.18
32875;BME280;40468;42.128;24.750;2023-03-20T05:58:54;100086.84;;;5.98;64.14
32875;BME280;40468;42.128;24.750;2023-03-20T06:00:26;100077.28;;;6.01;64.23
32875;BME280;40468;42.128;24.750;2023-03-20T06:01:58;100086.44;;;6.14;64.24
32875;BME280;40468;42.128;24.750;2023-03-20T06:03:30;100090.59;;;6.22;64.12
32875;BME280;40468;42.128;24.750;2023-03-20T06:05:02;100079.38;;;6.23;64.16
32875;BME280;40468;42.128;24.750;2023-03-20T06:06:34;100080.00;;;6.32;64.18
32875;BME280;40468;42.128;24.750;2023-03-20T06:08:07;100088.19;;;6.51;63.86
32875;BME280;40468;42.128;24.750;2023-03-20T06:09:39;100094.84;;;6.61;64.06
32875;BME280;40468;42.128;24.750;2023-03-20T06:11:11;100068.13;;;6.59;63.78
32875;BME280;40468;42.128;24.750;2023-03-20T06:12:43;100093.44;;;6.84;63.44
32875;BME280;40468;42.128;24.750;2023-03-20T06:14:15;100094.84;;;6.96;63.25
32875;BME280;40468;42.128;24.750;2023-03-20T06:15:47;100080.94;;;7.00;63.32
32875;BME280;40468;42.128;24.750;2023-03-20T06:17:20;100096.81;;;7.20;62.99
32875;BME280;40468;42.128;24.750;2023-03-20T06:18:52;100086.06;;;7.34;62.69
32875;BME280;40468;42.128;24.750;2023-03-20T06:20:24;100090.00;;;7.47;62.66
32875;BME280;40468;42.128;24.750;2023-03-20T06:21:55;100095.63;;;7.63;62.51
32875;BME280;40468;42.128;24.750;2023-03-20T06:23:27;100095.13;;;7.80;62.34
32875;BME280;40468;42.128;24.750;2023-03-20T06:24:59;100086.06;;;7.95;62.06
32875;BME280;40468;42.128;24.750;2023-03-20T06:26:31;100075.41;;;8.04;61.73
32875;BME280;40468;42.128;24.750;2023-03-20T06:28:03;100085.97;;;8.26;61.66
32875;BME280;40468;42.128;24.750;2023-03-20T06:29:35;100078.75;;;8.36;61.14
32875;BME280;40468;42.128;24.750;2023-03-20T06:31:07;100088.97;;;8.69;61.50
32875;BME280;40468;42.128;24.750;2023-03-20T06:32:41;100086.25;;;8.98;61.26
32875;BME280;40468;42.128;24.750;2023-03-20T06:34:13;100085.94;;;9.32;60.71
32875;BME280;40468;42.128;24.750;2023-03-20T06:35:45;100080.59;;;9.61;59.75
32875;BME280;40468;42.128;24.750;2023-03-20T06:37:17;100083.78;;;9.91;59.10
32875;BME280;40468;42.128;24.750;2023-03-20T06:38:49;100083.22;;;10.30;58.64
32875;BME280;40468;42.128;24.750;2023-03-20T06:40:21;100074.72;;;10.68;58.07
32875;BME280;40468;42.128;24.750;2023-03-20T06:41:53;100058.03;;;11.13;57.07
32875;BME280;40468;42.128;24.750;2023-03-20T06:43:25;100089.63;;;11.86;56.01
32875;BME280;40468;42.128;24.750;2023-03-20T06:44:57;100075.41;;;12.47;54.33
32875;BME280;40468;42.128;24.750;2023-03-20T06:46:29;100066.63;;;13.02;53.02
32875;BME280;40468;42.128;24.750;2023-03-20T06:48:05;100076.50;;;13.63;51.33
32875;BME280;40468;42.128;24.750;2023-03-20T06:49:37;100076.66;;;14.09;49.72
32875;BME280;40468;42.128;24.750;2023-03-20T06:51:07;100077.28;;;14.44;48.54
32875;BME280;40468;42.128;24.750;2023-03-20T06:52:39;100069.28;;;14.77;47.54
32875;BME280;40468;42.128;24.750;2023-03-20T06:54:11;100072.53;;;15.11;46.68
32875;BME280;40468;42.128;24.750;2023-03-20T06:55:46;100024.97;;;15.17;45.93
32875;BME280;40468;42.128;24.750;2023-03-20T06:57:18;100073.53;;;15.82;45.10
32875;BME280;40468;42.128;24.750;2023-03-20T06:58:50;100070.00;;;16.10;43.75
32875;BME280;40468;42.128;24.750;2023-03-20T07:00:22;100068.13;;;16.39;43.65
32875;BME280;40468;42.128;24.750;2023-03-20T07:01:54;100054.13;;;16.66;43.43
32875;BME280;40468;42.128;24.750;2023-03-20T07:03:28;100068.91;;;16.94;42.02
32875;BME280;40468;42.128;24.750;2023-03-20T07:05:00;100069.56;;;16.97;41.67
32875;BME280;40468;42.128;24.750;2023-03-20T07:06:32;100070.41;;;17.11;41.02
32875;BME280;40468;42.128;24.750;2023-03-20T07:08:05;100065.78;;;17.14;40.28
32875;BME280;40468;42.128;24.750;2023-03-20T07:09:37;100065.34;;;17.33;40.68
32875;BME280;40468;42.128;24.750;2023-03-20T07:11:09;100068.19;;;17.56;40.08
32875;BME280;40468;42.128;24.750;2023-03-20T07:12:41;100067.22;;;17.82;39.68
32875;BME280;40468;42.128;24.750;2023-03-20T07:14:14;100066.44;;;18.06;39.51
32875;BME280;40468;42.128;24.750;2023-03-20T07:15:46;100065.38;;;18.32;39.04
32875;BME280;40468;42.128;24.750;2023-03-20T07:17:18;100042.63;;;18.42;38.41
32875;BME280;40468;42.128;24.750;2023-03-20T07:18:51;100062.25;;;18.75;37.90
32875;BME280;40468;42.128;24.750;2023-03-20T07:20:23;100071.28;;;18.95;37.42
32875;BME280;40468;42.128;24.750;2023-03-20T07:21:58;100069.69;;;18.93;36.94
32875;BME280;40468;42.128;24.750;2023-03-20T07:23:32;100042.63;;;18.67;37.22
32875;BME280;40468;42.128;24.750;2023-03-20T07:25:06;100049.22;;;18.72;36.83
32875;BME280;40468;42.128;24.750;2023-03-20T07:26:39;100063.94;;;18.88;36.83
32875;BME280;40468;42.128;24.750;2023-03-20T07:28:11;100066.59;;;18.99;36.54
32875;BME280;40468;42.128;24.750;2023-03-20T07:29:43;100066.38;;;19.13;36.68
32875;BME280;40468;42.128;24.750;2023-03-20T07:31:18;100062.19;;;19.10;36.22
32875;BME280;40468;42.128;24.750;2023-03-20T07:32:51;100058.69;;;18.99;36.14
32875;BME280;40468;42.128;24.750;2023-03-20T07:34:25;100056.97;;;18.86;36.24
32875;BME280;40468;42.128;24.750;2023-03-20T07:35:57;100056.50;;;18.81;36.46
32875;BME280;40468;42.128;24.750;2023-03-20T07:37:29;100044.72;;;18.74;36.52
32875;BME280;40468;42.128;24.750;2023-03-20T07:39:01;100054.50;;;18.72;36.67
32875;BME280;40468;42.128;24.750;2023-03-20T07:40:34;100046.22;;;18.65;36.23
32875;BME280;40468;42.128;24.750;2023-03-20T07:42:06;100045.09;;;18.57;36.47
32875;BME280;40468;42.128;24.750;2023-03-20T07:43:37;100039.56;;;18.49;36.05
32875;BME280;40468;42.128;24.750;2023-03-20T07:45:09;100042.41;;;18.46;36.43
32875;BME280;40468;42.128;24.750;2023-03-20T07:46:41;99941.41;;;17.86;36.26
32875;BME280;40468;42.128;24.750;2023-03-20T07:48:15;100037.13;;;18.46;36.17
32875;BME280;40468;42.128;24.750;2023-03-20T07:49:48;100044.13;;;18.47;36.29
32875;BME280;40468;42.128;24.750;2023-03-20T07:51:21;100045.47;;;18.52;36.44
32875;BME280;40468;42.128;24.750;2023-03-20T07:52:53;100041.81;;;18.42;35.85
32875;BME280;40468;42.128;24.750;2023-03-20T07:54:25;100051.44;;;18.30;36.15
32875;BME280;40468;42.128;24.750;2023-03-20T07:55:57;100023.59;;;18.15;35.90
32875;BME280;40468;42.128;24.750;2023-03-20T07:57:29;100015.59;;;18.16;36.16
32875;BME280;40468;42.128;24.750;2023-03-20T07:59:01;100046.84;;;18.45;36.21
32875;BME280;40468;42.128;24.750;2023-03-20T08:00:33;99958.53;;;17.91;35.87
32875;BME280;40468;42.128;24.750;2023-03-20T08:02:05;100037.78;;;18.49;35.75
32875;BME280;40468;42.128;24.750;2023-03-20T08:03:38;100036.81;;;18.50;35.53
32875;BME280;40468;42.128;24.750;2023-03-20T08:05:11;100046.16;;;18.54;35.55
32875;BME280;40468;42.128;24.750;2023-03-20T08:06:44;100037.69;;;18.62;35.64
32875;BME280;40468;42.128;24.750;2023-03-20T08:08:15;100039.75;;;18.70;35.36
32875;BME280;40468;42.128;24.750;2023-03-20T08:09:47;100038.25;;;18.78;35.27
32875;BME280;40468;42.128;24.750;2023-03-20T08:11:19;99981.19;;;18.53;34.79
32875;BME280;40468;42.128;24.750;2023-03-20T08:12:52;100028.34;;;18.93;34.93
32875;BME280;40468;42.128;24.750;2023-03-20T08:14:24;100032.06;;;19.13;34.64
32875;BME280;40468;42.128;24.750;2023-03-20T08:15:56;100004.22;;;18.98;34.38
32875;BME280;40468;42.128;24.750;2023-03-20T08:17:28;100033.88;;;19.13;34.24